Main page
METAR-TAF:

METAR-TAF

Airports :

Grande Prairie Airport

Grande Prairie, Alberta, Canada

latitude: 55-11N, longitude: 118-53W, elevation: 666 m

Current weather observation

The report was made 58 minutes ago, at 04:00 UTC
Wind 5 kt from the South/Southeast
Temperature 26°C
Humidity 32%
Pressure 1014 hPa
Visibility: 40.2 km
Few clouds at a height of 12000 ft
Scattered clouds at a height of 24000 ft

METAR: CYQU 180400Z 15005KT 25SM FEW120 SCT240 26/08 A2994 RMK AC2CI1 SLP134 DENSITY ALT 4000FT

Time: 22:58 (04:58 UTC)

Forecast

The report was made 4 hours and 18 minutes ago, at 00:40 UTC
Forecast valid from 18 at 01 UTC to 18 at 13 UTC
Wind 3 kt from variable directions
Visibility: 10 km
Few clouds at a height of 10000 ft
From 18 at 0900 UTC
Wind 6 kt from the West/Northwest
Visibility: 10 km
Scattered clouds at a height of 14000 ft

TAF: CYQU 180040Z 1801/1813 VRB03KT P6SM FEW100 FM180900 30006KT P6SM SCT140 RMK NXT FCST BY 180700Z

Weather observations and forecasts of more than 4000 airports (METAR and TAF reports).

The available stations are represented by yellow and red dots on the map.

Hover mouse over dot to see the name of the station.

Then click to see weather observations and forecasts.

To change the map : click on the green buttons with a black cross to zoom in, on the green button with a dash to zoom out, or on the green arrows for adjacent maps.


METAR-TAF: